sensor_id;sensor_type;location;lat;lon;timestamp;P1;durP1;ratioP1;P2;durP2;ratioP2
81703;SDS011;71117;52.352;4.808;2023-07-22T00:01:12;13.32;;;5.82;;
81703;SDS011;71117;52.352;4.808;2023-07-22T00:03:38;9.88;;;5.35;;
81703;SDS011;71117;52.352;4.808;2023-07-22T00:06:07;11.95;;;5.78;;
81703;SDS011;71117;52.352;4.808;2023-07-22T00:08:34;13.98;;;5.63;;
81703;SDS011;71117;52.352;4.808;2023-07-22T00:11:00;10.77;;;5.32;;
81703;SDS011;71117;52.352;4.808;2023-07-22T00:13:25;14.32;;;5.68;;
81703;SDS011;71117;52.352;4.808;2023-07-22T00:15:54;14.38;;;5.97;;
81703;SDS011;71117;52.352;4.808;2023-07-22T00:18:20;10.63;;;5.65;;
81703;SDS011;71117;52.352;4.808;2023-07-22T00:20:45;10.07;;;5.55;;
81703;SDS011;71117;52.352;4.808;2023-07-22T00:23:11;12.45;;;5.57;;
81703;SDS011;71117;52.352;4.808;2023-07-22T00:25:36;11.93;;;5.82;;
81703;SDS011;71117;52.352;4.808;2023-07-22T00:28:02;9.13;;;5.00;;
81703;SDS011;71117;52.352;4.808;2023-07-22T00:30:29;12.32;;;5.97;;
81703;SDS011;71117;52.352;4.808;2023-07-22T00:32:54;16.98;;;6.55;;
81703;SDS011;71117;52.352;4.808;2023-07-22T00:35:20;14.27;;;6.35;;
81703;SDS011;71117;52.352;4.808;2023-07-22T00:37:46;13.20;;;6.93;;
81703;SDS011;71117;52.352;4.808;2023-07-22T00:40:11;13.52;;;6.30;;
81703;SDS011;71117;52.352;4.808;2023-07-22T00:42:37;15.50;;;6.85;;
81703;SDS011;71117;52.352;4.808;2023-07-22T00:45:03;13.18;;;6.70;;
81703;SDS011;71117;52.352;4.808;2023-07-22T00:47:29;16.13;;;6.95;;
81703;SDS011;71117;52.352;4.808;2023-07-22T00:49:54;14.85;;;6.47;;
81703;SDS011;71117;52.352;4.808;2023-07-22T00:52:21;21.33;;;8.15;;
81703;SDS011;71117;52.352;4.808;2023-07-22T00:54:46;17.33;;;7.90;;
81703;SDS011;71117;52.352;4.808;2023-07-22T00:57:12;22.80;;;8.77;;
81703;SDS011;71117;52.352;4.808;2023-07-22T00:59:38;16.95;;;8.30;;
81703;SDS011;71117;52.352;4.808;2023-07-22T01:02:04;19.98;;;7.72;;
81703;SDS011;71117;52.352;4.808;2023-07-22T01:04:29;16.85;;;7.47;;
81703;SDS011;71117;52.352;4.808;2023-07-22T01:06:59;14.32;;;7.70;;
81703;SDS011;71117;52.352;4.808;2023-07-22T01:09:25;16.50;;;7.55;;
81703;SDS011;71117;52.352;4.808;2023-07-22T01:11:51;16.77;;;7.95;;
81703;SDS011;71117;52.352;4.808;2023-07-22T01:14:16;15.35;;;7.53;;
81703;SDS011;71117;52.352;4.808;2023-07-22T01:16:41;16.13;;;7.47;;
81703;SDS011;71117;52.352;4.808;2023-07-22T01:19:07;17.13;;;8.00;;
81703;SDS011;71117;52.352;4.808;2023-07-22T01:21:35;16.55;;;7.85;;
81703;SDS011;71117;52.352;4.808;2023-07-22T01:24:01;17.50;;;7.55;;
81703;SDS011;71117;52.352;4.808;2023-07-22T01:26:27;17.73;;;8.13;;
81703;SDS011;71117;52.352;4.808;2023-07-22T01:29:01;19.33;;;8.32;;
81703;SDS011;71117;52.352;4.808;2023-07-22T01:31:27;15.73;;;7.57;;
81703;SDS011;71117;52.352;4.808;2023-07-22T01:33:53;15.20;;;7.57;;
81703;SDS011;71117;52.352;4.808;2023-07-22T01:36:18;16.35;;;8.30;;
81703;SDS011;71117;52.352;4.808;2023-07-22T01:38:43;17.70;;;7.60;;
81703;SDS011;71117;52.352;4.808;2023-07-22T01:41:09;17.75;;;8.18;;
81703;SDS011;71117;52.352;4.808;2023-07-22T01:43:34;23.10;;;8.55;;
81703;SDS011;71117;52.352;4.808;2023-07-22T01:45:59;18.55;;;7.93;;
81703;SDS011;71117;52.352;4.808;2023-07-22T01:48:25;19.00;;;7.80;;
81703;SDS011;71117;52.352;4.808;2023-07-22T01:50:50;21.63;;;8.57;;
81703;SDS011;71117;52.352;4.808;2023-07-22T01:53:16;21.80;;;9.02;;
81703;SDS011;71117;52.352;4.808;2023-07-22T01:55:41;23.92;;;8.77;;
81703;SDS011;71117;52.352;4.808;2023-07-22T01:58:06;24.08;;;9.80;;
81703;SDS011;71117;52.352;4.808;2023-07-22T02:00:32;20.45;;;9.13;;
81703;SDS011;71117;52.352;4.808;2023-07-22T02:02:57;16.30;;;8.15;;
81703;SDS011;71117;52.352;4.808;2023-07-22T02:05:22;18.10;;;8.38;;
81703;SDS011;71117;52.352;4.808;2023-07-22T02:07:48;23.52;;;9.52;;
81703;SDS011;71117;52.352;4.808;2023-07-22T02:10:13;20.75;;;9.23;;
81703;SDS011;71117;52.352;4.808;2023-07-22T02:12:41;23.70;;;9.50;;
81703;SDS011;71117;52.352;4.808;2023-07-22T02:15:07;21.70;;;9.45;;
81703;SDS011;71117;52.352;4.808;2023-07-22T02:17:33;23.15;;;11.02;;
81703;SDS011;71117;52.352;4.808;2023-07-22T02:19:58;26.80;;;10.60;;
81703;SDS011;71117;52.352;4.808;2023-07-22T02:22:24;24.55;;;10.38;;
81703;SDS011;71117;52.352;4.808;2023-07-22T02:24:49;26.25;;;10.68;;
81703;SDS011;71117;52.352;4.808;2023-07-22T02:27:14;26.33;;;10.43;;
81703;SDS011;71117;52.352;4.808;2023-07-22T02:29:40;24.85;;;10.93;;
81703;SDS011;71117;52.352;4.808;2023-07-22T02:32:05;24.55;;;11.15;;
81703;SDS011;71117;52.352;4.808;2023-07-22T02:34:31;21.85;;;10.40;;
81703;SDS011;71117;52.352;4.808;2023-07-22T02:36:56;23.83;;;10.57;;
81703;SDS011;71117;52.352;4.808;2023-07-22T02:39:22;25.27;;;10.25;;
81703;SDS011;71117;52.352;4.808;2023-07-22T02:41:48;22.08;;;11.35;;
81703;SDS011;71117;52.352;4.808;2023-07-22T02:44:13;24.10;;;9.43;;
81703;SDS011;71117;52.352;4.808;2023-07-22T02:46:38;20.13;;;9.77;;
81703;SDS011;71117;52.352;4.808;2023-07-22T02:49:04;27.10;;;11.57;;
81703;SDS011;71117;52.352;4.808;2023-07-22T02:51:30;26.80;;;10.88;;
81703;SDS011;71117;52.352;4.808;2023-07-22T02:53:55;25.42;;;10.65;;
81703;SDS011;71117;52.352;4.808;2023-07-22T02:56:21;23.63;;;10.25;;
81703;SDS011;71117;52.352;4.808;2023-07-22T02:58:46;25.65;;;9.82;;
81703;SDS011;71117;52.352;4.808;2023-07-22T03:01:13;23.52;;;9.85;;
81703;SDS011;71117;52.352;4.808;2023-07-22T03:03:38;19.80;;;9.18;;
81703;SDS011;71117;52.352;4.808;2023-07-22T03:06:05;22.48;;;10.23;;
81703;SDS011;71117;52.352;4.808;2023-07-22T03:08:30;23.90;;;10.13;;
81703;SDS011;71117;52.352;4.808;2023-07-22T03:10:55;21.20;;;8.88;;
81703;SDS011;71117;52.352;4.808;2023-07-22T03:13:21;20.13;;;9.57;;
81703;SDS011;71117;52.352;4.808;2023-07-22T03:15:46;18.02;;;8.73;;
81703;SDS011;71117;52.352;4.808;2023-07-22T03:18:12;17.45;;;7.82;;
81703;SDS011;71117;52.352;4.808;2023-07-22T03:20:37;18.48;;;8.70;;
81703;SDS011;71117;52.352;4.808;2023-07-22T03:23:04;16.95;;;7.72;;
81703;SDS011;71117;52.352;4.808;2023-07-22T03:25:29;17.33;;;8.25;;
81703;SDS011;71117;52.352;4.808;2023-07-22T03:27:55;16.90;;;8.30;;
81703;SDS011;71117;52.352;4.808;2023-07-22T03:30:22;18.73;;;8.05;;
81703;SDS011;71117;52.352;4.808;2023-07-22T03:32:48;17.92;;;7.30;;
81703;SDS011;71117;52.352;4.808;2023-07-22T03:35:15;16.95;;;7.90;;
81703;SDS011;71117;52.352;4.808;2023-07-22T03:37:41;17.20;;;7.50;;
81703;SDS011;71117;52.352;4.808;2023-07-22T03:40:08;16.52;;;8.02;;
81703;SDS011;71117;52.352;4.808;2023-07-22T03:42:44;19.98;;;7.65;;
81703;SDS011;71117;52.352;4.808;2023-07-22T03:45:13;14.95;;;7.43;;
81703;SDS011;71117;52.352;4.808;2023-07-22T03:47:39;14.55;;;7.00;;
81703;SDS011;71117;52.352;4.808;2023-07-22T03:50:05;14.15;;;6.60;;
81703;SDS011;71117;52.352;4.808;2023-07-22T03:52:31;15.23;;;6.75;;
81703;SDS011;71117;52.352;4.808;2023-07-22T03:54:56;12.52;;;6.15;;
81703;SDS011;71117;52.352;4.808;2023-07-22T03:57:28;11.93;;;5.85;;
81703;SDS011;71117;52.352;4.808;2023-07-22T03:59:54;14.15;;;6.47;;
81703;SDS011;71117;52.352;4.808;2023-07-22T04:02:20;13.93;;;5.53;;
81703;SDS011;71117;52.352;4.808;2023-07-22T04:04:46;15.90;;;5.75;;
81703;SDS011;71117;52.352;4.808;2023-07-22T04:07:11;13.05;;;6.03;;
81703;SDS011;71117;52.352;4.808;2023-07-22T04:09:37;12.90;;;6.10;;
81703;SDS011;71117;52.352;4.808;2023-07-22T04:12:02;12.80;;;5.65;;
81703;SDS011;71117;52.352;4.808;2023-07-22T04:14:28;12.00;;;5.88;;
81703;SDS011;71117;52.352;4.808;2023-07-22T04:16:54;11.70;;;5.32;;
81703;SDS011;71117;52.352;4.808;2023-07-22T04:19:19;10.30;;;5.25;;
81703;SDS011;71117;52.352;4.808;2023-07-22T04:21:44;11.80;;;5.07;;
81703;SDS011;71117;52.352;4.808;2023-07-22T04:24:10;8.98;;;5.15;;
81703;SDS011;71117;52.352;4.808;2023-07-22T04:26:35;10.93;;;5.68;;
81703;SDS011;71117;52.352;4.808;2023-07-22T04:29:01;10.25;;;5.50;;
81703;SDS011;71117;52.352;4.808;2023-07-22T04:31:26;10.15;;;5.00;;
81703;SDS011;71117;52.352;4.808;2023-07-22T04:33:52;8.23;;;4.10;;
81703;SDS011;71117;52.352;4.808;2023-07-22T04:36:17;7.97;;;4.32;;
81703;SDS011;71117;52.352;4.808;2023-07-22T04:38:42;9.27;;;3.92;;
81703;SDS011;71117;52.352;4.808;2023-07-22T04:41:08;8.85;;;5.30;;
81703;SDS011;71117;52.352;4.808;2023-07-22T04:43:33;8.68;;;4.13;;
81703;SDS011;71117;52.352;4.808;2023-07-22T04:45:58;8.90;;;4.50;;
81703;SDS011;71117;52.352;4.808;2023-07-22T04:48:24;8.70;;;4.10;;
81703;SDS011;71117;52.352;4.808;2023-07-22T04:50:49;6.93;;;4.20;;
81703;SDS011;71117;52.352;4.808;2023-07-22T04:53:16;9.52;;;4.47;;
81703;SDS011;71117;52.352;4.808;2023-07-22T04:55:42;10.45;;;4.35;;
81703;SDS011;71117;52.352;4.808;2023-07-22T04:58:07;8.05;;;4.40;;
81703;SDS011;71117;52.352;4.808;2023-07-22T05:00:34;9.50;;;4.70;;
81703;SDS011;71117;52.352;4.808;2023-07-22T05:03:02;8.88;;;4.43;;
81703;SDS011;71117;52.352;4.808;2023-07-22T05:05:27;10.35;;;4.60;;
81703;SDS011;71117;52.352;4.808;2023-07-22T05:07:53;9.10;;;5.30;;
81703;SDS011;71117;52.352;4.808;2023-07-22T05:10:19;9.38;;;4.28;;
81703;SDS011;71117;52.352;4.808;2023-07-22T05:12:45;12.52;;;5.05;;
81703;SDS011;71117;52.352;4.808;2023-07-22T05:15:11;9.00;;;4.90;;
81703;SDS011;71117;52.352;4.808;2023-07-22T05:17:37;9.13;;;4.85;;
81703;SDS011;71117;52.352;4.808;2023-07-22T05:20:03;8.93;;;4.75;;
81703;SDS011;71117;52.352;4.808;2023-07-22T05:22:31;10.65;;;5.88;;
81703;SDS011;71117;52.352;4.808;2023-07-22T05:24:57;9.80;;;5.00;;
81703;SDS011;71117;52.352;4.808;2023-07-22T05:27:22;12.57;;;5.53;;
81703;SDS011;71117;52.352;4.808;2023-07-22T05:29:48;11.13;;;5.95;;
81703;SDS011;71117;52.352;4.808;2023-07-22T05:32:13;11.95;;;5.38;;
81703;SDS011;71117;52.352;4.808;2023-07-22T05:34:38;10.88;;;5.78;;
81703;SDS011;71117;52.352;4.808;2023-07-22T05:37:04;10.18;;;5.05;;
81703;SDS011;71117;52.352;4.808;2023-07-22T05:39:29;10.40;;;5.70;;
81703;SDS011;71117;52.352;4.808;2023-07-22T05:41:55;11.27;;;5.65;;
81703;SDS011;71117;52.352;4.808;2023-07-22T05:44:21;10.35;;;5.13;;
81703;SDS011;71117;52.352;4.808;2023-07-22T05:46:47;8.95;;;5.50;;
81703;SDS011;71117;52.352;4.808;2023-07-22T05:49:12;9.82;;;4.63;;
81703;SDS011;71117;52.352;4.808;2023-07-22T05:51:37;11.32;;;5.32;;
81703;SDS011;71117;52.352;4.808;2023-07-22T05:54:03;8.23;;;4.75;;
81703;SDS011;71117;52.352;4.808;2023-07-22T05:56:28;8.35;;;5.47;;
81703;SDS011;71117;52.352;4.808;2023-07-22T05:58:54;10.70;;;5.43;;
81703;SDS011;71117;52.352;4.808;2023-07-22T06:01:19;11.27;;;5.88;;
81703;SDS011;71117;52.352;4.808;2023-07-22T06:03:45;13.10;;;6.40;;
81703;SDS011;71117;52.352;4.808;2023-07-22T06:06:10;13.48;;;6.07;;
81703;SDS011;71117;52.352;4.808;2023-07-22T06:08:35;13.90;;;6.43;;
81703;SDS011;71117;52.352;4.808;2023-07-22T06:11:02;12.13;;;5.85;;
81703;SDS011;71117;52.352;4.808;2023-07-22T06:13:27;15.77;;;7.15;;
81703;SDS011;71117;52.352;4.808;2023-07-22T06:15:53;13.85;;;7.25;;
81703;SDS011;71117;52.352;4.808;2023-07-22T06:18:18;10.65;;;6.20;;
81703;SDS011;71117;52.352;4.808;2023-07-22T06:20:46;17.33;;;7.55;;
81703;SDS011;71117;52.352;4.808;2023-07-22T06:23:12;18.10;;;8.40;;
81703;SDS011;71117;52.352;4.808;2023-07-22T06:25:38;12.32;;;6.82;;
81703;SDS011;71117;52.352;4.808;2023-07-22T06:28:04;16.42;;;7.32;;
81703;SDS011;71117;52.352;4.808;2023-07-22T06:30:29;15.23;;;8.10;;
81703;SDS011;71117;52.352;4.808;2023-07-22T06:32:54;17.48;;;7.40;;
81703;SDS011;71117;52.352;4.808;2023-07-22T06:35:20;19.27;;;8.27;;
81703;SDS011;71117;52.352;4.808;2023-07-22T06:37:47;16.63;;;7.97;;
81703;SDS011;71117;52.352;4.808;2023-07-22T06:40:12;19.58;;;9.68;;
81703;SDS011;71117;52.352;4.808;2023-07-22T06:42:38;18.33;;;8.52;;
81703;SDS011;71117;52.352;4.808;2023-07-22T06:45:04;18.88;;;8.70;;
81703;SDS011;71117;52.352;4.808;2023-07-22T06:47:30;20.27;;;9.55;;
81703;SDS011;71117;52.352;4.808;2023-07-22T06:49:55;19.13;;;9.95;;
81703;SDS011;71117;52.352;4.808;2023-07-22T06:52:21;20.35;;;10.68;;
81703;SDS011;71117;52.352;4.808;2023-07-22T06:54:46;21.58;;;10.43;;
81703;SDS011;71117;52.352;4.808;2023-07-22T06:57:12;23.98;;;11.18;;
81703;SDS011;71117;52.352;4.808;2023-07-22T06:59:37;22.50;;;10.82;;
81703;SDS011;71117;52.352;4.808;2023-07-22T07:02:03;29.48;;;12.10;;
81703;SDS011;71117;52.352;4.808;2023-07-22T07:04:32;26.23;;;12.60;;
81703;SDS011;71117;52.352;4.808;2023-07-22T07:06:57;25.15;;;13.20;;
81703;SDS011;71117;52.352;4.808;2023-07-22T07:09:24;34.72;;;14.10;;
81703;SDS011;71117;52.352;4.808;2023-07-22T07:11:50;33.78;;;13.27;;
81703;SDS011;71117;52.352;4.808;2023-07-22T07:14:15;31.67;;;13.55;;
81703;SDS011;71117;52.352;4.808;2023-07-22T07:16:41;25.67;;;12.32;;
81703;SDS011;71117;52.352;4.808;2023-07-22T07:19:06;28.92;;;14.20;;
81703;SDS011;71117;52.352;4.808;2023-07-22T07:21:31;26.05;;;11.95;;
81703;SDS011;71117;52.352;4.808;2023-07-22T07:23:57;28.48;;;13.20;;
81703;SDS011;71117;52.352;4.808;2023-07-22T07:26:23;27.20;;;11.45;;
81703;SDS011;71117;52.352;4.808;2023-07-22T07:28:49;24.40;;;11.73;;
81703;SDS011;71117;52.352;4.808;2023-07-22T07:31:16;27.35;;;11.30;;
81703;SDS011;71117;52.352;4.808;2023-07-22T07:33:41;28.90;;;12.40;;
81703;SDS011;71117;52.352;4.808;2023-07-22T07:36:07;29.92;;;12.65;;
81703;SDS011;71117;52.352;4.808;2023-07-22T07:38:32;27.83;;;12.32;;
81703;SDS011;71117;52.352;4.808;2023-07-22T07:40:58;23.55;;;11.60;;
81703;SDS011;71117;52.352;4.808;2023-07-22T07:43:25;27.60;;;12.90;;
81703;SDS011;71117;52.352;4.808;2023-07-22T07:46:11;24.90;;;12.40;;
81703;SDS011;71117;52.352;4.808;2023-07-22T07:48:45;24.10;;;11.50;;
81703;SDS011;71117;52.352;4.808;2023-07-22T07:51:12;26.08;;;13.10;;
81703;SDS011;71117;52.352;4.808;2023-07-22T07:53:41;27.30;;;13.35;;
81703;SDS011;71117;52.352;4.808;2023-07-22T07:56:08;24.30;;;12.10;;
81703;SDS011;71117;52.352;4.808;2023-07-22T07:58:33;26.00;;;12.20;;
81703;SDS011;71117;52.352;4.808;2023-07-22T08:00:59;27.90;;;12.57;;
81703;SDS011;71117;52.352;4.808;2023-07-22T08:03:24;27.48;;;12.93;;
81703;SDS011;71117;52.352;4.808;2023-07-22T08:05:49;25.92;;;11.73;;
81703;SDS011;71117;52.352;4.808;2023-07-22T08:08:15;29.13;;;13.70;;
81703;SDS011;71117;52.352;4.808;2023-07-22T08:10:41;23.40;;;12.32;;
81703;SDS011;71117;52.352;4.808;2023-07-22T08:13:08;23.05;;;11.55;;
81703;SDS011;71117;52.352;4.808;2023-07-22T08:15:33;21.23;;;10.75;;
81703;SDS011;71117;52.352;4.808;2023-07-22T08:17:59;22.83;;;10.90;;
81703;SDS011;71117;52.352;4.808;2023-07-22T08:20:24;19.52;;;10.70;;
81703;SDS011;71117;52.352;4.808;2023-07-22T08:22:50;21.45;;;10.27;;
81703;SDS011;71117;52.352;4.808;2023-07-22T08:25:15;25.40;;;10.70;;
81703;SDS011;71117;52.352;4.808;2023-07-22T08:27:40;22.33;;;10.77;;
81703;SDS011;71117;52.352;4.808;2023-07-22T08:30:06;23.77;;;11.15;;
81703;SDS011;71117;52.352;4.808;2023-07-22T08:32:32;25.83;;;10.70;;
81703;SDS011;71117;52.352;4.808;2023-07-22T08:34:57;29.15;;;12.40;;
81703;SDS011;71117;52.352;4.808;2023-07-22T08:37:23;15.60;;;9.27;;
81703;SDS011;71117;52.352;4.808;2023-07-22T08:39:48;13.32;;;7.80;;
81703;SDS011;71117;52.352;4.808;2023-07-22T08:42:13;12.48;;;6.85;;
81703;SDS011;71117;52.352;4.808;2023-07-22T08:44:43;13.07;;;6.55;;
81703;SDS011;71117;52.352;4.808;2023-07-22T08:47:10;10.75;;;5.43;;
81703;SDS011;71117;52.352;4.808;2023-07-22T08:49:41;11.05;;;4.95;;
81703;SDS011;71117;52.352;4.808;2023-07-22T08:52:11;9.60;;;5.03;;
81703;SDS011;71117;52.352;4.808;2023-07-22T08:54:39;10.63;;;5.20;;
81703;SDS011;71117;52.352;4.808;2023-07-22T08:57:05;7.57;;;4.63;;
81703;SDS011;71117;52.352;4.808;2023-07-22T08:59:33;9.00;;;4.55;;
81703;SDS011;71117;52.352;4.808;2023-07-22T09:01:59;11.15;;;4.47;;
81703;SDS011;71117;52.352;4.808;2023-07-22T09:04:26;7.20;;;3.53;;
81703;SDS011;71117;52.352;4.808;2023-07-22T09:06:51;8.82;;;3.38;;
81703;SDS011;71117;52.352;4.808;2023-07-22T09:09:18;5.82;;;3.60;;
81703;SDS011;71117;52.352;4.808;2023-07-22T09:11:44;6.70;;;3.30;;
81703;SDS011;71117;52.352;4.808;2023-07-22T09:14:11;7.90;;;3.47;;
81703;SDS011;71117;52.352;4.808;2023-07-22T09:16:37;5.75;;;3.53;;
81703;SDS011;71117;52.352;4.808;2023-07-22T09:19:04;9.20;;;3.97;;
81703;SDS011;71117;52.352;4.808;2023-07-22T09:21:30;8.00;;;3.90;;
81703;SDS011;71117;52.352;4.808;2023-07-22T09:23:56;7.28;;;3.92;;
81703;SDS011;71117;52.352;4.808;2023-07-22T09:26:21;7.68;;;3.67;;
81703;SDS011;71117;52.352;4.808;2023-07-22T09:28:50;9.40;;;4.20;;
81703;SDS011;71117;52.352;4.808;2023-07-22T09:31:16;7.78;;;4.55;;
81703;SDS011;71117;52.352;4.808;2023-07-22T09:33:41;6.75;;;4.32;;
81703;SDS011;71117;52.352;4.808;2023-07-22T09:36:09;12.73;;;4.85;;
81703;SDS011;71117;52.352;4.808;2023-07-22T09:38:35;7.72;;;3.97;;
81703;SDS011;71117;52.352;4.808;2023-07-22T09:41:00;8.05;;;4.13;;
81703;SDS011;71117;52.352;4.808;2023-07-22T09:43:26;7.15;;;4.03;;
81703;SDS011;71117;52.352;4.808;2023-07-22T09:45:52;9.50;;;4.57;;
81703;SDS011;71117;52.352;4.808;2023-07-22T09:48:20;7.55;;;4.20;;
81703;SDS011;71117;52.352;4.808;2023-07-22T09:50:47;8.00;;;3.67;;
81703;SDS011;71117;52.352;4.808;2023-07-22T09:53:21;5.32;;;3.25;;
81703;SDS011;71117;52.352;4.808;2023-07-22T09:55:46;7.07;;;3.30;;
81703;SDS011;71117;52.352;4.808;2023-07-22T09:58:12;5.57;;;2.72;;
81703;SDS011;71117;52.352;4.808;2023-07-22T10:00:39;4.43;;;1.92;;
81703;SDS011;71117;52.352;4.808;2023-07-22T10:03:10;3.30;;;1.40;;
81703;SDS011;71117;52.352;4.808;2023-07-22T10:05:37;4.70;;;1.40;;
81703;SDS011;71117;52.352;4.808;2023-07-22T10:08:04;2.35;;;1.38;;
81703;SDS011;71117;52.352;4.808;2023-07-22T10:10:34;6.00;;;1.27;;
81703;SDS011;71117;52.352;4.808;2023-07-22T10:13:02;4.85;;;1.40;;
81703;SDS011;71117;52.352;4.808;2023-07-22T10:15:29;2.92;;;1.20;;
81703;SDS011;71117;52.352;4.808;2023-07-22T10:17:56;3.83;;;2.17;;
81703;SDS011;71117;52.352;4.808;2023-07-22T10:20:22;4.38;;;1.48;;
81703;SDS011;71117;52.352;4.808;2023-07-22T10:22:48;4.15;;;2.00;;
81703;SDS011;71117;52.352;4.808;2023-07-22T10:25:16;5.70;;;1.85;;
81703;SDS011;71117;52.352;4.808;2023-07-22T10:27:43;3.90;;;1.13;;
81703;SDS011;71117;52.352;4.808;2023-07-22T10:30:09;5.22;;;1.67;;
81703;SDS011;71117;52.352;4.808;2023-07-22T10:32:37;3.45;;;1.33;;
81703;SDS011;71117;52.352;4.808;2023-07-22T10:35:10;5.30;;;1.50;;
81703;SDS011;71117;52.352;4.808;2023-07-22T10:37:38;2.85;;;1.48;;
81703;SDS011;71117;52.352;4.808;2023-07-22T10:40:16;3.45;;;1.58;;
81703;SDS011;71117;52.352;4.808;2023-07-22T10:43:06;2.28;;;1.40;;
81703;SDS011;71117;52.352;4.808;2023-07-22T10:45:32;2.60;;;1.27;;
81703;SDS011;71117;52.352;4.808;2023-07-22T10:48:02;2.80;;;1.60;;
81703;SDS011;71117;52.352;4.808;2023-07-22T10:50:44;5.22;;;2.08;;
81703;SDS011;71117;52.352;4.808;2023-07-22T10:53:27;5.85;;;2.17;;
81703;SDS011;71117;52.352;4.808;2023-07-22T10:59:17;3.55;;;2.03;;
81703;SDS011;71117;52.352;4.808;2023-07-22T11:01:21;4.35;;;2.53;;
81703;SDS011;71117;52.352;4.808;2023-07-22T11:06:56;3.78;;;1.80;;
81703;SDS011;71117;52.352;4.808;2023-07-22T11:11:52;8.32;;;2.35;;
81703;SDS011;71117;52.352;4.808;2023-07-22T11:14:22;2.78;;;1.52;;
81703;SDS011;71117;52.352;4.808;2023-07-22T11:16:49;1.80;;;1.20;;
81703;SDS011;71117;52.352;4.808;2023-07-22T11:19:15;3.95;;;1.63;;
81703;SDS011;71117;52.352;4.808;2023-07-22T11:21:42;5.47;;;1.20;;
81703;SDS011;71117;52.352;4.808;2023-07-22T11:24:10;3.20;;;1.40;;
81703;SDS011;71117;52.352;4.808;2023-07-22T11:26:35;2.58;;;1.20;;
81703;SDS011;71117;52.352;4.808;2023-07-22T11:29:03;1.85;;;1.02;;
81703;SDS011;71117;52.352;4.808;2023-07-22T11:31:39;2.25;;;1.20;;
81703;SDS011;71117;52.352;4.808;2023-07-22T11:34:08;1.88;;;1.10;;
81703;SDS011;71117;52.352;4.808;2023-07-22T11:36:39;3.50;;;1.05;;
81703;SDS011;71117;52.352;4.808;2023-07-22T11:39:07;2.40;;;1.10;;
81703;SDS011;71117;52.352;4.808;2023-07-22T11:41:34;2.47;;;1.00;;
81703;SDS011;71117;52.352;4.808;2023-07-22T11:44:00;3.15;;;1.15;;
81703;SDS011;71117;52.352;4.808;2023-07-22T11:46:27;3.10;;;1.10;;
81703;SDS011;71117;52.352;4.808;2023-07-22T11:48:53;4.53;;;1.23;;
81703;SDS011;71117;52.352;4.808;2023-07-22T11:51:20;4.43;;;1.10;;
81703;SDS011;71117;52.352;4.808;2023-07-22T11:53:50;3.08;;;1.10;;
81703;SDS011;71117;52.352;4.808;2023-07-22T11:56:23;4.00;;;1.67;;
81703;SDS011;71117;52.352;4.808;2023-07-22T11:58:53;2.70;;;1.27;;
81703;SDS011;71117;52.352;4.808;2023-07-22T12:01:20;2.88;;;0.80;;
81703;SDS011;71117;52.352;4.808;2023-07-22T12:03:46;3.65;;;0.90;;
81703;SDS011;71117;52.352;4.808;2023-07-22T12:06:12;3.15;;;0.90;;
81703;SDS011;71117;52.352;4.808;2023-07-22T12:08:45;3.83;;;1.33;;
81703;SDS011;71117;52.352;4.808;2023-07-22T12:11:19;4.20;;;1.15;;
81703;SDS011;71117;52.352;4.808;2023-07-22T12:13:48;3.30;;;1.17;;
81703;SDS011;71117;52.352;4.808;2023-07-22T12:16:23;3.60;;;1.00;;
81703;SDS011;71117;52.352;4.808;2023-07-22T12:18:49;3.33;;;1.35;;
81703;SDS011;71117;52.352;4.808;2023-07-22T12:21:14;3.25;;;1.02;;
81703;SDS011;71117;52.352;4.808;2023-07-22T12:23:41;5.18;;;1.13;;
81703;SDS011;71117;52.352;4.808;2023-07-22T12:26:07;5.35;;;1.30;;
81703;SDS011;71117;52.352;4.808;2023-07-22T12:28:33;2.63;;;1.10;;
81703;SDS011;71117;52.352;4.808;2023-07-22T12:30:58;5.22;;;1.10;;
81703;SDS011;71117;52.352;4.808;2023-07-22T12:33:24;3.17;;;1.30;;
81703;SDS011;71117;52.352;4.808;2023-07-22T12:35:50;5.10;;;1.48;;
81703;SDS011;71117;52.352;4.808;2023-07-22T12:38:16;2.63;;;1.00;;
81703;SDS011;71117;52.352;4.808;2023-07-22T12:40:42;4.35;;;1.40;;
81703;SDS011;71117;52.352;4.808;2023-07-22T12:43:07;4.03;;;1.30;;
81703;SDS011;71117;52.352;4.808;2023-07-22T12:45:33;3.63;;;1.10;;
81703;SDS011;71117;52.352;4.808;2023-07-22T12:47:59;2.20;;;1.10;;
81703;SDS011;71117;52.352;4.808;2023-07-22T12:50:24;4.15;;;1.10;;
81703;SDS011;71117;52.352;4.808;2023-07-22T12:52:50;9.73;;;1.60;;
81703;SDS011;71117;52.352;4.808;2023-07-22T12:55:16;2.63;;;1.42;;
81703;SDS011;71117;52.352;4.808;2023-07-22T12:57:42;3.08;;;1.30;;
81703;SDS011;71117;52.352;4.808;2023-07-22T13:00:08;3.38;;;1.50;;
81703;SDS011;71117;52.352;4.808;2023-07-22T13:02:36;3.95;;;1.60;;
81703;SDS011;71117;52.352;4.808;2023-07-22T13:05:02;4.60;;;1.45;;
81703;SDS011;71117;52.352;4.808;2023-07-22T13:07:28;3.05;;;1.48;;
81703;SDS011;71117;52.352;4.808;2023-07-22T13:09:54;4.18;;;1.45;;
81703;SDS011;71117;52.352;4.808;2023-07-22T13:12:21;3.78;;;1.33;;
81703;SDS011;71117;52.352;4.808;2023-07-22T13:14:47;3.80;;;1.45;;
81703;SDS011;71117;52.352;4.808;2023-07-22T13:17:12;2.90;;;1.35;;
81703;SDS011;71117;52.352;4.808;2023-07-22T13:19:37;3.33;;;1.65;;
81703;SDS011;71117;52.352;4.808;2023-07-22T13:22:03;3.00;;;1.55;;
81703;SDS011;71117;52.352;4.808;2023-07-22T13:24:29;2.53;;;1.52;;
81703;SDS011;71117;52.352;4.808;2023-07-22T13:26:54;2.70;;;1.50;;
81703;SDS011;71117;52.352;4.808;2023-07-22T13:29:20;3.22;;;1.52;;
81703;SDS011;71117;52.352;4.808;2023-07-22T13:31:45;2.40;;;1.52;;
81703;SDS011;71117;52.352;4.808;2023-07-22T13:34:10;3.42;;;1.40;;
81703;SDS011;71117;52.352;4.808;2023-07-22T13:36:36;4.55;;;1.50;;
81703;SDS011;71117;52.352;4.808;2023-07-22T13:39:01;3.97;;;1.30;;
81703;SDS011;71117;52.352;4.808;2023-07-22T13:41:27;3.47;;;1.55;;
81703;SDS011;71117;52.352;4.808;2023-07-22T13:43:53;4.82;;;1.65;;
81703;SDS011;71117;52.352;4.808;2023-07-22T13:46:18;5.18;;;1.80;;
81703;SDS011;71117;52.352;4.808;2023-07-22T13:48:44;3.85;;;1.52;;
81703;SDS011;71117;52.352;4.808;2023-07-22T13:51:09;6.15;;;1.48;;
81703;SDS011;71117;52.352;4.808;2023-07-22T13:53:35;4.15;;;1.40;;
81703;SDS011;71117;52.352;4.808;2023-07-22T13:56:00;5.32;;;1.40;;
81703;SDS011;71117;52.352;4.808;2023-07-22T13:58:25;2.92;;;1.30;;
81703;SDS011;71117;52.352;4.808;2023-07-22T14:00:51;3.75;;;1.60;;
81703;SDS011;71117;52.352;4.808;2023-07-22T14:03:16;2.75;;;1.13;;
81703;SDS011;71117;52.352;4.808;2023-07-22T14:05:41;3.20;;;1.52;;
81703;SDS011;71117;52.352;4.808;2023-07-22T14:08:07;4.28;;;1.58;;
81703;SDS011;71117;52.352;4.808;2023-07-22T14:10:32;5.55;;;1.90;;
81703;SDS011;71117;52.352;4.808;2023-07-22T14:12:58;3.60;;;1.17;;
81703;SDS011;71117;52.352;4.808;2023-07-22T14:15:23;3.33;;;1.50;;
81703;SDS011;71117;52.352;4.808;2023-07-22T14:17:48;2.63;;;1.35;;
81703;SDS011;71117;52.352;4.808;2023-07-22T14:20:14;3.72;;;1.77;;
81703;SDS011;71117;52.352;4.808;2023-07-22T14:22:39;4.90;;;1.67;;
81703;SDS011;71117;52.352;4.808;2023-07-22T14:25:07;2.47;;;1.50;;
81703;SDS011;71117;52.352;4.808;2023-07-22T14:27:33;6.20;;;1.48;;
81703;SDS011;71117;52.352;4.808;2023-07-22T14:29:59;4.47;;;1.65;;
81703;SDS011;71117;52.352;4.808;2023-07-22T14:32:25;6.63;;;1.13;;
81703;SDS011;71117;52.352;4.808;2023-07-22T14:34:51;4.88;;;1.50;;
81703;SDS011;71117;52.352;4.808;2023-07-22T14:37:16;2.97;;;1.80;;
81703;SDS011;71117;52.352;4.808;2023-07-22T14:39:42;3.38;;;1.55;;
81703;SDS011;71117;52.352;4.808;2023-07-22T14:42:07;4.47;;;1.30;;